createdAt,value
2022-12-15T00:00:20.221Z,25.50
2022-12-15T00:03:05.633Z,23.07
2022-12-15T00:05:51.012Z,27.73
2022-12-15T00:08:36.616Z,23.17
2022-12-15T00:11:22.449Z,25.43
2022-12-15T00:14:08.005Z,25.03
2022-12-15T00:16:55.945Z,21.43
2022-12-15T00:19:41.414Z,24.33
2022-12-15T00:22:26.991Z,21.93
2022-12-15T00:25:12.055Z,21.00
2022-12-15T00:27:57.565Z,23.97
2022-12-15T00:30:43.126Z,23.23
2022-12-15T00:33:30.868Z,21.77
2022-12-15T00:36:17.419Z,20.30
2022-12-15T00:38:45.471Z,25.73
2022-12-15T00:41:15.186Z,22.57
2022-12-15T00:43:43.577Z,25.17
2022-12-15T00:46:29.454Z,19.27
2022-12-15T00:48:58.954Z,22.20
2022-12-15T00:51:44.834Z,22.70
2022-12-15T00:54:30.155Z,22.30
2022-12-15T00:57:15.598Z,26.67
2022-12-15T01:00:01.098Z,24.83
2022-12-15T01:02:46.783Z,19.77
2022-12-15T01:05:34.054Z,22.43
2022-12-15T01:08:19.470Z,24.30
2022-12-15T01:11:04.976Z,19.73
2022-12-15T01:13:50.432Z,24.17
2022-12-15T01:16:36.080Z,22.50
2022-12-15T01:19:21.783Z,22.50
2022-12-15T01:21:51.019Z,24.33
2022-12-15T01:24:18.847Z,25.67
2022-12-15T01:26:47.816Z,23.87
2022-12-15T01:29:15.587Z,24.83
2022-12-15T01:31:44.086Z,22.90
2022-12-15T01:34:12.116Z,20.33
2022-12-15T01:36:39.984Z,20.40
2022-12-15T01:39:09.168Z,26.97
2022-12-15T01:41:36.219Z,25.40
2022-12-15T01:44:19.850Z,22.07
2022-12-15T01:46:52.987Z,21.23
2022-12-15T01:49:26.181Z,24.00
2022-12-15T01:51:59.459Z,23.37
2022-12-15T01:54:33.201Z,22.80
2022-12-15T01:57:05.685Z,23.43
2022-12-15T01:59:38.493Z,22.83
2022-12-15T02:02:06.640Z,23.77
2022-12-15T02:04:35.229Z,24.20
2022-12-15T02:07:03.065Z,18.40
2022-12-15T02:09:32.743Z,22.07
2022-12-15T02:12:16.547Z,24.97
2022-12-15T02:14:56.723Z,24.90
2022-12-15T02:17:36.270Z,20.80
2022-12-15T02:20:50.448Z,21.60
2022-12-15T02:24:02.367Z,19.37
2022-12-15T02:27:00.319Z,23.23
2022-12-15T02:29:52.302Z,22.80
2022-12-15T02:32:27.252Z,21.97
2022-12-15T02:34:59.476Z,26.33
2022-12-15T02:37:32.221Z,27.90
2022-12-15T02:40:00.079Z,23.90
2022-12-15T02:42:29.583Z,25.33
2022-12-15T02:45:01.946Z,25.00
2022-12-15T02:47:35.391Z,23.30
2022-12-15T02:50:20.603Z,31.47
2022-12-15T02:53:00.199Z,24.27
2022-12-15T02:55:36.645Z,26.20
2022-12-15T02:58:09.328Z,30.27
2022-12-15T03:00:41.954Z,33.20
2022-12-15T03:03:12.434Z,24.57
2022-12-15T03:05:40.367Z,30.23
2022-12-15T03:08:09.137Z,27.07
2022-12-15T03:10:37.032Z,29.43
2022-12-15T03:13:04.832Z,22.93
2022-12-15T03:15:35.591Z,27.57
2022-12-15T03:18:03.774Z,27.57
2022-12-15T03:20:33.066Z,28.00
2022-12-15T03:23:01.771Z,27.40
2022-12-15T03:25:29.728Z,26.53
2022-12-15T03:27:57.569Z,32.53
2022-12-15T03:30:25.511Z,25.50
2022-12-15T03:32:53.455Z,27.67
2022-12-15T03:35:21.823Z,24.67
2022-12-15T03:37:51.027Z,25.20
2022-12-15T03:40:18.883Z,26.60
2022-12-15T03:42:49.285Z,29.63
2022-12-15T03:45:19.013Z,25.77
2022-12-15T03:47:47.928Z,30.93
2022-12-15T03:50:18.304Z,29.47
2022-12-15T03:52:46.290Z,27.03
2022-12-15T03:55:15.991Z,28.17
2022-12-15T03:57:43.903Z,31.57
2022-12-15T04:00:15.435Z,34.80
2022-12-15T04:02:43.562Z,27.07
2022-12-15T04:05:16.003Z,30.20
2022-12-15T04:07:43.959Z,27.50
2022-12-15T04:10:12.397Z,26.30
2022-12-15T04:12:41.685Z,26.60
2022-12-15T04:15:11.085Z,32.67
2022-12-15T04:17:39.807Z,31.83
2022-12-15T04:20:11.792Z,31.53
2022-12-15T04:22:41.031Z,26.33
2022-12-15T04:25:28.304Z,36.17
2022-12-15T04:28:15.134Z,30.40
2022-12-15T04:31:06.852Z,28.90
2022-12-15T04:33:52.570Z,28.93
2022-12-15T04:36:38.086Z,30.67
2022-12-15T04:39:24.021Z,27.30
2022-12-15T04:42:09.964Z,30.50
2022-12-15T04:44:57.212Z,32.40
2022-12-15T04:47:42.600Z,30.43
2022-12-15T04:50:28.249Z,26.73
2022-12-15T04:53:14.447Z,29.50
2022-12-15T04:55:59.888Z,28.40
2022-12-15T04:58:45.368Z,27.37
2022-12-15T05:01:32.120Z,33.10
2022-12-15T05:04:17.547Z,29.60
2022-12-15T05:07:03.107Z,28.97
2022-12-15T05:09:48.552Z,28.10
2022-12-15T05:12:34.142Z,30.03
2022-12-15T05:15:19.444Z,26.23
2022-12-15T05:18:06.070Z,35.03
2022-12-15T05:20:51.513Z,27.80
2022-12-15T05:23:37.092Z,35.70
2022-12-15T05:26:22.426Z,31.77
2022-12-15T05:29:07.746Z,27.27
2022-12-15T05:31:51.834Z,28.07
2022-12-15T05:34:23.042Z,26.40
2022-12-15T05:36:51.403Z,26.70
2022-12-15T05:39:19.468Z,24.87
2022-12-15T05:41:47.367Z,25.63
2022-12-15T05:44:15.167Z,28.80
2022-12-15T05:46:43.043Z,28.13
2022-12-15T05:49:14.798Z,29.43
2022-12-15T05:51:46.379Z,34.63
2022-12-15T05:54:17.083Z,28.27
2022-12-15T05:56:44.896Z,29.93
2022-12-15T05:59:13.247Z,26.20
2022-12-15T06:01:41.238Z,32.07
2022-12-15T06:04:09.191Z,28.80
2022-12-15T06:06:37.093Z,32.53
2022-12-15T06:09:06.409Z,31.10
2022-12-15T06:11:34.311Z,30.60
2022-12-15T06:14:02.078Z,27.17
2022-12-15T06:16:30.004Z,34.17
2022-12-15T06:19:00.026Z,26.73
2022-12-15T06:21:30.533Z,30.03
2022-12-15T06:23:58.983Z,40.90
2022-12-15T06:26:30.297Z,33.85
2022-12-15T06:29:02.503Z,31.03
2022-12-15T06:31:31.517Z,29.10
2022-12-15T06:34:02.482Z,28.57
2022-12-15T06:36:31.603Z,33.00
2022-12-15T06:39:00.438Z,30.77
2022-12-15T06:41:30.892Z,30.63
2022-12-15T06:43:59.524Z,25.00
2022-12-15T06:46:28.842Z,31.17
2022-12-15T06:48:56.934Z,31.90
2022-12-15T06:51:24.961Z,28.63
2022-12-15T06:53:54.045Z,31.73
2022-12-15T06:56:28.919Z,31.70
2022-12-15T06:59:03.278Z,32.83
2022-12-15T07:01:32.097Z,28.33
2022-12-15T07:04:01.480Z,32.83
2022-12-15T07:06:34.066Z,36.30
2022-12-15T07:09:01.914Z,29.03
2022-12-15T07:11:29.729Z,30.73
2022-12-15T07:13:57.474Z,33.20
2022-12-15T07:16:26.749Z,37.20
2022-12-15T07:18:54.687Z,35.40
2022-12-15T07:21:22.463Z,31.17
2022-12-15T07:23:55.187Z,33.73
2022-12-15T07:26:24.058Z,29.37
2022-12-15T07:28:52.833Z,29.00
2022-12-15T07:31:20.716Z,29.50
2022-12-15T07:33:51.817Z,27.70
2022-12-15T07:36:19.665Z,33.70
2022-12-15T07:38:49.947Z,34.97
2022-12-15T07:41:19.701Z,35.70
2022-12-15T07:43:47.604Z,34.50
2022-12-15T07:46:15.878Z,37.20
2022-12-15T07:48:43.945Z,33.17
2022-12-15T07:51:21.037Z,33.10
2022-12-15T07:53:50.414Z,35.00
2022-12-15T07:56:19.120Z,28.93
2022-12-15T07:58:47.262Z,32.00
2022-12-15T08:01:15.932Z,39.00
2022-12-15T08:03:44.961Z,34.70
2022-12-15T08:06:14.767Z,38.30
2022-12-15T08:08:49.898Z,39.67
2022-12-15T08:11:19.910Z,35.97
2022-12-15T08:14:05.440Z,35.20
2022-12-15T08:16:36.491Z,36.20
2022-12-15T08:19:05.309Z,36.67
2022-12-15T08:21:33.171Z,38.00
2022-12-15T08:24:02.445Z,32.47
2022-12-15T08:26:31.456Z,41.77
2022-12-15T08:29:40.456Z,38.87
2022-12-15T08:31:52.507Z,35.03
2022-12-15T08:34:20.744Z,38.10
2022-12-15T08:36:48.468Z,33.20
2022-12-15T08:39:17.628Z,35.17
2022-12-15T08:41:45.742Z,32.60
2022-12-15T08:44:13.659Z,39.20
2022-12-15T08:46:41.417Z,38.33
2022-12-15T08:49:09.794Z,33.10
2022-12-15T08:51:37.665Z,36.30
2022-12-15T08:54:05.495Z,39.10
2022-12-15T08:56:34.804Z,36.77
2022-12-15T08:59:03.240Z,35.30
2022-12-15T09:01:33.140Z,33.70
2022-12-15T09:04:02.176Z,35.87
2022-12-15T09:06:33.660Z,35.00
2022-12-15T09:09:05.027Z,36.77
2022-12-15T09:11:34.383Z,32.37
2022-12-15T09:14:02.240Z,40.87
2022-12-15T09:16:30.166Z,35.37
2022-12-15T09:18:59.970Z,38.57
2022-12-15T09:21:29.732Z,39.57
2022-12-15T09:24:01.832Z,33.40
2022-12-15T09:26:31.697Z,39.90
2022-12-15T09:29:02.346Z,43.57
2022-12-15T09:31:32.606Z,40.80
2022-12-15T09:34:01.581Z,37.50
2022-12-15T09:36:30.796Z,40.63
2022-12-15T09:38:58.934Z,43.60
2022-12-15T09:41:29.300Z,36.17
2022-12-15T09:44:00.205Z,37.30
2022-12-15T09:46:43.121Z,42.27
2022-12-15T09:49:17.350Z,35.97
2022-12-15T09:51:51.560Z,42.03
2022-12-15T09:54:30.475Z,44.03
2022-12-15T09:57:02.502Z,51.63
2022-12-15T09:59:35.746Z,43.97
2022-12-15T10:02:31.467Z,44.43
2022-12-15T10:05:11.188Z,40.97
2022-12-15T10:07:44.101Z,41.33
2022-12-15T10:10:18.939Z,45.73
2022-12-15T10:15:42.123Z,45.33
2022-12-15T10:18:23.327Z,36.97
2022-12-15T10:20:54.409Z,41.77
2022-12-15T10:23:22.450Z,41.87
2022-12-15T10:25:54.795Z,38.23
2022-12-15T10:28:43.019Z,42.97
2022-12-15T10:31:19.839Z,43.30
2022-12-15T10:33:57.113Z,44.27
2022-12-15T10:36:24.975Z,30.57
2022-12-15T10:38:53.018Z,38.00
2022-12-15T10:41:22.879Z,41.33
2022-12-15T10:43:52.348Z,35.30
2022-12-15T10:46:22.677Z,43.63
2022-12-15T10:48:54.041Z,36.63
2022-12-15T10:51:27.270Z,42.70
2022-12-15T10:54:04.438Z,35.33
2022-12-15T10:56:34.591Z,41.20
2022-12-15T10:59:04.794Z,44.00
2022-12-15T11:01:35.481Z,43.17
2022-12-15T11:04:05.110Z,41.47
2022-12-15T11:06:34.448Z,37.57
2022-12-15T11:09:20.415Z,43.10
2022-12-15T11:12:11.660Z,41.40
2022-12-15T11:14:44.812Z,38.70
2022-12-15T11:17:16.875Z,38.60
2022-12-15T11:20:01.871Z,39.00
2022-12-15T11:22:40.532Z,43.43
2022-12-15T11:25:20.825Z,36.73
2022-12-15T11:27:51.428Z,42.37
2022-12-15T11:30:22.120Z,45.57
2022-12-15T11:32:53.508Z,38.83
2022-12-15T11:35:29.763Z,43.63
2022-12-15T11:38:01.948Z,41.50
2022-12-15T11:40:36.285Z,44.30
2022-12-15T11:43:41.133Z,33.13
2022-12-15T11:46:21.842Z,40.37
2022-12-15T11:49:02.471Z,33.77
2022-12-15T11:51:41.283Z,39.17
2022-12-15T11:54:17.690Z,39.53
2022-12-15T11:56:49.017Z,39.20
2022-12-15T11:59:43.959Z,39.53
2022-12-15T12:02:27.365Z,40.13
2022-12-15T12:05:10.821Z,38.27
2022-12-15T12:07:45.332Z,35.93
2022-12-15T12:10:26.529Z,37.33
2022-12-15T12:13:01.604Z,33.53
2022-12-15T12:15:36.756Z,33.77
2022-12-15T12:18:11.031Z,43.90
2022-12-15T12:20:44.348Z,36.30
2022-12-15T12:23:21.006Z,38.37
2022-12-15T12:26:02.576Z,41.00
2022-12-15T12:28:37.494Z,40.20
2022-12-15T12:31:11.071Z,35.83
2022-12-15T12:33:43.372Z,37.67
2022-12-15T12:36:13.228Z,38.60
2022-12-15T12:38:50.757Z,34.53
2022-12-15T12:41:27.656Z,34.00
2022-12-15T12:43:58.092Z,41.10
2022-12-15T12:46:33.101Z,36.23
2022-12-15T12:49:07.475Z,36.87
2022-12-15T12:51:37.177Z,43.23
2022-12-15T12:54:39.786Z,41.70
2022-12-15T12:57:32.500Z,44.27
2022-12-15T13:00:03.020Z,44.80
2022-12-15T13:02:50.553Z,43.10
2022-12-15T13:05:33.481Z,41.17
2022-12-15T13:08:37.472Z,40.23
2022-12-15T13:11:38.567Z,45.73
2022-12-15T13:14:21.105Z,47.33
2022-12-15T13:17:25.006Z,46.40
2022-12-15T13:20:24.383Z,47.23
2022-12-15T13:22:52.849Z,48.70
2022-12-15T13:25:42.457Z,48.93
2022-12-15T13:28:31.478Z,43.60
2022-12-15T13:31:33.169Z,49.00
2022-12-15T13:34:17.004Z,43.63
2022-12-15T13:37:02.145Z,46.10
2022-12-15T13:39:52.060Z,53.63
2022-12-15T13:42:36.013Z,50.13
2022-12-15T13:45:22.788Z,52.77
2022-12-15T13:47:57.668Z,43.30
2022-12-15T13:50:34.119Z,44.43
2022-12-15T13:53:20.503Z,44.10
2022-12-15T13:56:04.188Z,55.53
2022-12-15T13:58:40.285Z,53.58
2022-12-15T14:01:20.881Z,46.53
2022-12-15T14:04:03.984Z,50.03
2022-12-15T14:06:37.312Z,46.00
2022-12-15T14:09:06.317Z,47.17
2022-12-15T14:11:52.350Z,46.00
2022-12-15T14:14:25.449Z,46.73
2022-12-15T14:16:56.878Z,49.23
2022-12-15T14:19:26.927Z,47.63
2022-12-15T14:21:56.401Z,52.90
2022-12-15T14:24:42.508Z,50.90
2022-12-15T14:27:10.288Z,44.87
2022-12-15T14:29:38.088Z,44.40
2022-12-15T14:32:06.479Z,40.57
2022-12-15T14:34:38.767Z,41.83
2022-12-15T14:37:12.149Z,49.70
2022-12-15T14:39:43.698Z,62.77
2022-12-15T14:42:17.098Z,41.57
2022-12-15T14:44:49.753Z,52.63
2022-12-15T14:47:24.416Z,40.30
2022-12-15T14:49:55.104Z,50.67
2022-12-15T14:52:30.908Z,45.37
2022-12-15T14:55:00.577Z,47.40
2022-12-15T14:57:44.968Z,40.10
2022-12-15T15:00:26.547Z,42.23
2022-12-15T15:03:03.887Z,44.10
2022-12-15T15:03:19.946Z,43.10
2022-12-15T15:05:52.475Z,42.77
2022-12-15T15:08:27.847Z,39.10
2022-12-15T15:10:57.594Z,43.40
2022-12-15T15:13:40.044Z,42.83
2022-12-15T15:16:15.957Z,48.40
2022-12-15T15:18:44.302Z,51.07
2022-12-15T15:21:22.257Z,42.53
2022-12-15T15:24:00.176Z,46.20
2022-12-15T15:26:29.175Z,44.27
2022-12-15T15:28:57.197Z,42.70
2022-12-15T15:31:40.276Z,32.83
2022-12-15T15:34:09.855Z,45.17
2022-12-15T15:36:40.213Z,45.97
2022-12-15T15:39:15.099Z,39.60
2022-12-15T15:41:43.302Z,43.33
2022-12-15T15:44:14.611Z,42.73
2022-12-15T15:46:48.173Z,47.97
2022-12-15T15:49:19.892Z,42.90
2022-12-15T15:51:49.896Z,41.73
2022-12-15T15:54:23.133Z,41.67
2022-12-15T15:56:50.870Z,40.67
2022-12-15T15:59:21.677Z,40.93
2022-12-15T16:01:54.458Z,47.40
2022-12-15T16:04:22.739Z,42.23
2022-12-15T16:06:53.173Z,36.43
2022-12-15T16:09:21.201Z,51.00
2022-12-15T16:11:49.123Z,45.30
2022-12-15T16:14:18.648Z,42.60
2022-12-15T16:16:46.778Z,48.73
2022-12-15T16:19:14.562Z,36.67
2022-12-15T16:21:43.771Z,41.73
2022-12-15T16:24:17.181Z,40.97
2022-12-15T16:26:49.397Z,45.60
2022-12-15T16:29:18.935Z,37.47
2022-12-15T16:31:47.140Z,47.10
2022-12-15T16:34:17.469Z,42.47
2022-12-15T16:36:46.132Z,44.00
2022-12-15T16:39:26.583Z,40.63
2022-12-15T16:41:56.482Z,41.33
2022-12-15T16:44:24.782Z,43.90
2022-12-15T16:46:53.089Z,42.20
2022-12-15T16:49:21.133Z,49.50
2022-12-15T16:51:51.853Z,44.73
2022-12-15T16:54:24.431Z,44.43
2022-12-15T16:56:53.115Z,46.83
2022-12-15T16:59:33.153Z,44.60
2022-12-15T17:02:02.135Z,39.90
2022-12-15T17:04:30.055Z,40.20
2022-12-15T17:06:57.810Z,42.37
2022-12-15T17:09:27.206Z,44.17
2022-12-15T17:11:54.974Z,47.27
2022-12-15T17:14:22.788Z,48.53
2022-12-15T17:16:50.541Z,43.43
2022-12-15T17:19:21.265Z,50.10
2022-12-15T17:21:52.463Z,48.10
2022-12-15T17:24:22.135Z,43.33
2022-12-15T17:26:51.726Z,45.80
2022-12-15T17:29:22.676Z,45.13
2022-12-15T17:31:50.708Z,48.43
2022-12-15T17:34:29.996Z,42.23
2022-12-15T17:36:59.004Z,53.30
2022-12-15T17:39:27.899Z,54.70
2022-12-15T17:42:00.624Z,51.93
2022-12-15T17:44:33.438Z,59.20
2022-12-15T17:47:03.063Z,54.33
2022-12-15T17:49:35.504Z,45.43
2022-12-15T17:52:07.813Z,53.33
2022-12-15T17:54:35.645Z,43.33
2022-12-15T17:57:04.839Z,48.27
2022-12-15T17:59:32.746Z,51.67
2022-12-15T18:02:00.874Z,45.67
2022-12-15T18:04:28.768Z,54.10
2022-12-15T18:07:01.660Z,65.50
2022-12-15T18:09:30.299Z,51.63
2022-12-15T18:11:58.131Z,51.07
2022-12-15T18:14:28.700Z,56.07
2022-12-15T18:16:56.445Z,51.47
2022-12-15T18:19:24.302Z,49.37
2022-12-15T18:21:52.071Z,47.60
2022-12-15T18:24:21.483Z,53.07
2022-12-15T18:26:49.430Z,54.80
2022-12-15T18:29:18.444Z,46.27
2022-12-15T18:31:48.696Z,53.57
2022-12-15T18:34:18.303Z,58.50
2022-12-15T18:36:46.254Z,48.17
2022-12-15T18:39:19.534Z,51.53
2022-12-15T18:41:47.564Z,57.77
2022-12-15T18:44:22.539Z,58.87
2022-12-15T18:46:52.011Z,50.60
2022-12-15T18:49:21.500Z,62.00
2022-12-15T18:51:49.503Z,60.53
2022-12-15T18:54:19.870Z,57.40
2022-12-15T18:56:47.825Z,47.73
2022-12-15T18:59:17.187Z,64.77
2022-12-15T19:01:45.636Z,53.07
2022-12-15T19:04:15.420Z,49.17
2022-12-15T19:06:44.076Z,47.90
2022-12-15T19:09:16.688Z,49.87
2022-12-15T19:12:17.474Z,53.30
2022-12-15T19:14:46.979Z,57.40
2022-12-15T19:17:34.001Z,53.60
2022-12-15T19:20:21.668Z,51.70
2022-12-15T19:22:50.094Z,52.97
2022-12-15T19:25:25.457Z,56.03
2022-12-15T19:27:58.539Z,50.87
2022-12-15T19:30:28.807Z,51.50
2022-12-15T19:32:57.238Z,50.10
2022-12-15T19:35:28.218Z,54.10
2022-12-15T19:37:58.108Z,59.37
2022-12-15T19:40:30.083Z,46.43
2022-12-15T19:42:59.054Z,51.47
2022-12-15T19:45:28.288Z,53.60
2022-12-15T19:47:56.528Z,56.80
2022-12-15T19:50:30.529Z,51.03
2022-12-15T19:53:01.055Z,47.50
2022-12-15T19:55:32.763Z,55.63
2022-12-15T19:58:00.955Z,45.20
2022-12-15T20:00:28.984Z,54.77
2022-12-15T20:02:57.071Z,46.10
2022-12-15T20:05:27.115Z,45.63
2022-12-15T20:07:55.575Z,51.23
2022-12-15T20:10:31.916Z,55.20
2022-12-15T20:13:00.716Z,47.67
2022-12-15T20:15:28.963Z,46.83
2022-12-15T20:17:57.539Z,54.53
2022-12-15T20:20:29.019Z,59.07
2022-12-15T20:23:00.576Z,47.30
2022-12-15T20:25:33.339Z,49.23
2022-12-15T20:28:01.541Z,41.53
2022-12-15T20:30:32.633Z,45.70
2022-12-15T20:33:01.182Z,42.63
2022-12-15T20:35:33.154Z,42.90
2022-12-15T20:38:04.227Z,45.27
2022-12-15T20:40:32.365Z,37.47
2022-12-15T20:43:00.131Z,51.60
2022-12-15T20:45:28.482Z,34.57
2022-12-15T20:47:57.505Z,41.20
2022-12-15T20:50:28.907Z,39.07
2022-12-15T20:52:58.387Z,40.13
2022-12-15T20:55:26.191Z,40.33
2022-12-15T20:57:54.504Z,48.50
2022-12-15T21:00:23.268Z,43.00
2022-12-15T21:02:51.983Z,39.60
2022-12-15T21:05:25.529Z,36.33
2022-12-15T21:07:53.603Z,35.17
2022-12-15T21:10:22.944Z,25.90
2022-12-15T21:12:51.388Z,34.40
2022-12-15T21:15:21.595Z,29.13
2022-12-15T21:18:11.056Z,32.63
2022-12-15T21:20:40.992Z,30.30
2022-12-15T21:23:25.763Z,28.20
2022-12-15T21:25:56.088Z,31.20
2022-12-15T21:28:24.144Z,23.17
2022-12-15T21:30:52.188Z,32.13
2022-12-15T21:33:20.523Z,29.90
2022-12-15T21:35:49.337Z,23.97
2022-12-15T21:38:31.968Z,22.93
2022-12-15T21:41:04.100Z,35.33
2022-12-15T21:43:33.968Z,28.60
2022-12-15T21:46:03.389Z,29.77
2022-12-15T21:48:48.594Z,25.53
2022-12-15T21:51:18.456Z,29.63
2022-12-15T21:53:47.418Z,27.97
2022-12-15T21:56:18.029Z,29.30
2022-12-15T21:58:48.868Z,22.00
2022-12-15T22:01:18.150Z,37.78
2022-12-15T22:03:51.443Z,32.73
2022-12-15T22:06:21.250Z,21.60
2022-12-15T22:08:49.669Z,22.97
2022-12-15T22:11:22.991Z,22.03
2022-12-15T22:13:52.008Z,23.60
2022-12-15T22:16:20.530Z,24.20
2022-12-15T22:18:51.131Z,23.50
2022-12-15T22:21:19.438Z,24.37
2022-12-15T22:23:48.023Z,21.33
2022-12-15T22:26:23.513Z,28.87
2022-12-15T22:28:51.960Z,24.30
2022-12-15T22:31:19.884Z,24.23
2022-12-15T22:33:47.821Z,19.53
2022-12-15T22:36:15.652Z,26.50
2022-12-15T22:38:43.466Z,26.70
2022-12-15T22:41:19.158Z,25.80
2022-12-15T22:43:50.908Z,29.17
2022-12-15T22:46:22.194Z,26.13
2022-12-15T22:48:50.335Z,25.63
2022-12-15T22:51:19.121Z,28.40
2022-12-15T22:53:47.187Z,23.07
2022-12-15T22:56:23.711Z,24.00
2022-12-15T23:01:28.709Z,24.07
2022-12-15T23:03:56.949Z,29.70
2022-12-15T23:06:27.019Z,42.67
2022-12-15T23:08:56.306Z,26.53
2022-12-15T23:11:39.805Z,21.40
2022-12-15T23:14:09.556Z,20.87
2022-12-15T23:16:38.081Z,22.20
2022-12-15T23:19:07.889Z,28.17
2022-12-15T23:21:36.761Z,25.97
2022-12-15T23:24:04.804Z,26.33
2022-12-15T23:26:32.755Z,30.27
2022-12-15T23:29:00.508Z,24.60
2022-12-15T23:31:28.934Z,25.27
2022-12-15T23:33:58.237Z,22.47
2022-12-15T23:36:26.121Z,22.40
2022-12-15T23:38:55.031Z,20.43
2022-12-15T23:41:22.872Z,25.50
2022-12-15T23:43:50.663Z,25.43
2022-12-15T23:46:19.804Z,24.70
2022-12-15T23:48:48.232Z,26.50
2022-12-15T23:51:19.310Z,29.20
2022-12-15T23:53:48.707Z,22.13
2022-12-15T23:56:18.886Z,21.13
2022-12-15T23:58:48.895Z,22.20
